Terminal Aerodrome Forecast
Issued by NWS Wilmington, NC

Home | Current Version | Previous Version | Text Only | Print | Product List | Glossary On
Versions: 1 2 3 4 5 6 7 8 9 10 11 12
000
FTUS42 KILM 252328
TAFFLO
TAF
KFLO 252328Z 2600/2624 16007KT P6SM FEW040
     FM260900 12003KT 5SM BR SCT007 BKN015
     FM261300 17006KT P6SM SCT025 BKN050
     FM261900 15011G15KT P6SM SCT050 BKN100=

USA.gov is the U.S. government's official web portal to all federal, state and local government web resources and services.